Time;durP1;ratioP1;P1;durP2;ratioP2;P2;SDS_P1;SDS_P2;PMS_P1;PMS_P2;Temp;Humidity;BMP_temperature;BMP_pressure;BME280_temperature;BME280_humidity;BME280_pressure;Samples;Min_cycle;Max_cycle;Signal;HPM_P1;HPM_P2
2021/04/30 00:00:09;;;;;;;22.90;20.73;;;10.10;1.00;;;;;;5050199;28;20305;-74
2021/04/30 00:02:36;;;;;;;23.17;20.90;;;10.00;1.00;;;;;;5062614;28;20328;-75
2021/04/30 00:05:02;;;;;;;24.88;22.38;;;10.00;1.00;;;;;;5044995;28;20324;-75
2021/04/30 00:07:28;;;;;;;21.17;19.15;;;9.90;1.00;;;;;;5068647;28;20253;-75
2021/04/30 00:09:55;;;;;;;20.13;18.10;;;9.90;1.00;;;;;;5064706;28;20629;-76
2021/04/30 00:12:22;;;;;;;20.52;18.40;;;9.80;1.00;;;;;;5042467;28;20249;-76
2021/04/30 00:14:48;;;;;;;21.98;19.88;;;9.80;1.00;;;;;;5057561;28;21085;-76
2021/04/30 00:17:14;;;;;;;20.65;18.55;;;9.70;1.00;;;;;;5055194;28;21225;-76
2021/04/30 00:19:41;;;;;;;20.48;18.38;;;9.70;1.00;;;;;;5051617;28;20229;-76
2021/04/30 00:22:07;;;;;;;18.17;16.45;;;9.70;1.00;;;;;;5052763;28;20222;-76
2021/04/30 00:24:34;;;;;;;17.13;15.38;;;9.70;1.00;;;;;;5053461;28;20300;-76
2021/04/30 00:27:00;;;;;;;19.02;17.02;;;9.70;1.00;;;;;;5048134;28;21340;-76
2021/04/30 00:29:26;;;;;;;18.35;16.45;;;9.60;1.00;;;;;;5054702;28;21390;-75
2021/04/30 00:31:52;;;;;;;16.48;14.77;;;9.60;1.00;;;;;;5052883;28;20225;-76
2021/04/30 00:34:18;;;;;;;17.75;16.15;;;9.60;1.00;;;;;;5048821;28;21077;-76
2021/04/30 00:36:45;;;;;;;18.75;16.85;;;9.60;1.00;;;;;;5041117;28;20367;-77
2021/04/30 00:39:11;;;;;;;19.42;17.35;;;9.60;1.00;;;;;;5049873;28;20221;-77
2021/04/30 00:41:39;;;;;;;18.15;16.52;;;9.70;1.00;;;;;;5050820;28;20255;-77
2021/04/30 00:44:06;;;;;;;18.45;16.63;;;9.60;1.00;;;;;;5050746;28;20316;-77
2021/04/30 00:46:32;;;;;;;19.50;17.52;;;9.60;1.00;;;;;;5052258;28;20238;-77
2021/04/30 00:48:59;;;;;;;16.80;15.20;;;9.60;1.00;;;;;;5047203;28;20371;-77
2021/04/30 00:51:25;;;;;;;18.38;16.25;;;9.60;1.00;;;;;;5056631;28;20229;-76
2021/04/30 00:53:53;;;;;;;16.85;15.25;;;9.50;1.00;;;;;;5054819;28;20359;-75
2021/04/30 00:56:21;;;;;;;15.80;14.18;;;9.50;1.00;;;;;;5051272;28;20232;-76
2021/04/30 00:58:47;;;;;;;15.55;14.15;;;9.50;1.00;;;;;;5054077;28;20251;-76
2021/04/30 01:01:15;;;;;;;16.75;14.70;;;9.50;1.00;;;;;;5053030;28;20233;-76
2021/04/30 01:03:42;;;;;;;16.50;14.90;;;9.50;1.00;;;;;;5051186;28;20980;-76
2021/04/30 01:06:09;;;;;;;17.65;15.95;;;9.50;1.00;;;;;;5046073;28;20425;-75
2021/04/30 01:08:35;;;;;;;16.02;14.43;;;9.50;1.00;;;;;;5049684;28;20237;-76
2021/04/30 01:11:02;;;;;;;15.52;14.00;;;9.50;1.00;;;;;;5058768;28;20232;-76
2021/04/30 01:13:28;;;;;;;18.27;16.48;;;9.40;1.00;;;;;;5062526;28;20229;-76
2021/04/30 01:15:54;;;;;;;17.52;15.88;;;9.40;1.00;;;;;;5052473;28;20571;-76
2021/04/30 01:18:20;;;;;;;16.67;15.07;;;9.40;1.00;;;;;;5055754;28;20249;-76
2021/04/30 01:20:46;;;;;;;18.13;16.33;;;9.40;1.00;;;;;;5052793;28;20288;-76
2021/04/30 01:23:13;;;;;;;16.83;15.23;;;9.40;1.00;;;;;;5056335;28;20230;-76
2021/04/30 01:25:40;;;;;;;17.83;16.15;;;9.40;1.00;;;;;;5055343;28;20830;-77
2021/04/30 01:28:06;;;;;;;16.95;15.20;;;9.40;1.00;;;;;;5053280;28;20243;-77
2021/04/30 01:30:34;;;;;;;19.33;17.42;;;9.40;1.00;;;;;;5055752;28;20894;-76
2021/04/30 01:33:02;;;;;;;18.75;17.00;;;9.50;1.00;;;;;;5052698;28;20259;-76
2021/04/30 01:35:30;;;;;;;17.55;15.95;;;9.40;1.00;;;;;;5077792;28;20222;-76
2021/04/30 01:37:59;;;;;;;19.80;17.88;;;9.40;1.00;;;;;;5060655;28;20239;-77
2021/04/30 01:40:28;;;;;;;19.40;17.52;;;9.40;1.00;;;;;;5048781;28;20256;-76
2021/04/30 01:42:56;;;;;;;18.45;16.52;;;9.40;1.00;;;;;;5047658;28;20230;-76
2021/04/30 01:45:23;;;;;;;19.70;17.80;;;9.40;1.00;;;;;;5056626;28;20217;-76
2021/04/30 01:47:49;;;;;;;19.15;17.33;;;9.40;1.00;;;;;;5050499;28;20312;-77
2021/04/30 01:50:15;;;;;;;17.17;15.52;;;9.40;1.00;;;;;;5056212;28;20804;-75
2021/04/30 01:52:41;;;;;;;18.58;16.77;;;9.40;1.00;;;;;;5048727;28;20634;-76
2021/04/30 01:55:08;;;;;;;18.60;16.70;;;9.30;1.00;;;;;;5050255;28;20318;-75
2021/04/30 01:57:36;;;;;;;18.90;17.05;;;9.30;1.00;;;;;;5050547;28;21814;-77
2021/04/30 02:00:05;;;;;;;17.77;16.08;;;9.30;1.00;;;;;;5048237;28;20322;-76
2021/04/30 02:02:44;;;;;;;17.42;15.82;;;9.40;1.00;;;;;;5053912;28;20229;-76
2021/04/30 02:05:11;;;;;;;17.35;15.70;;;9.40;1.00;;;;;;5050565;28;20222;-76
2021/04/30 02:07:37;;;;;;;15.65;14.25;;;9.30;1.00;;;;;;5051640;28;20336;-76
2021/04/30 02:10:07;;;;;;;16.33;14.65;;;9.30;1.00;;;;;;5053060;28;20300;-77
2021/04/30 02:12:33;;;;;;;14.63;13.23;;;9.30;1.00;;;;;;5057082;28;20216;-76
2021/04/30 02:15:00;;;;;;;15.90;14.43;;;9.20;1.00;;;;;;5050571;28;20225;-77
2021/04/30 02:17:30;;;;;;;16.23;14.73;;;9.20;1.00;;;;;;5053174;28;21009;-77
2021/04/30 02:19:56;;;;;;;14.57;13.23;;;9.20;1.00;;;;;;5053559;28;20240;-77
2021/04/30 02:22:22;;;;;;;16.58;15.07;;;9.10;1.00;;;;;;5053785;28;20225;-77
2021/04/30 02:24:48;;;;;;;15.77;14.38;;;9.20;1.00;;;;;;5058547;28;21808;-76
2021/04/30 02:27:15;;;;;;;15.75;14.35;;;9.20;1.00;;;;;;5059661;28;20231;-77
2021/04/30 02:29:41;;;;;;;15.60;14.10;;;9.20;1.00;;;;;;5058219;28;20241;-77
2021/04/30 02:32:08;;;;;;;16.42;14.82;;;9.20;1.00;;;;;;5058419;28;20221;-76
2021/04/30 02:34:34;;;;;;;15.48;13.98;;;9.30;1.00;;;;;;5057138;28;20220;-76
2021/04/30 02:37:00;;;;;;;14.95;13.55;;;9.30;1.00;;;;;;5057910;28;20232;-76
2021/04/30 02:39:26;;;;;;;15.85;14.27;;;9.30;1.00;;;;;;5059235;28;20228;-76
2021/04/30 02:41:53;;;;;;;16.20;14.70;;;9.30;1.00;;;;;;5059787;28;20221;-76
2021/04/30 02:44:19;;;;;;;15.90;14.40;;;9.20;1.00;;;;;;5056155;28;20217;-76
2021/04/30 02:46:45;;;;;;;16.15;14.55;;;9.20;1.00;;;;;;5052883;28;20878;-75
2021/04/30 02:49:15;;;;;;;17.65;14.73;;;9.10;1.00;;;;;;5054263;28;20229;-76
2021/04/30 02:51:41;;;;;;;16.50;14.82;;;9.10;1.00;;;;;;5060500;28;20237;-77
2021/04/30 02:54:07;;;;;;;16.50;14.80;;;9.10;1.00;;;;;;5077737;28;20310;-76
2021/04/30 02:56:35;;;;;;;15.98;14.48;;;9.10;1.00;;;;;;5078333;28;20228;-76
2021/04/30 02:59:04;;;;;;;16.40;14.73;;;9.10;1.00;;;;;;5063856;28;20225;-75
2021/04/30 03:01:30;;;;;;;16.58;14.98;;;9.00;1.00;;;;;;5063375;28;20223;-75
2021/04/30 03:03:56;;;;;;;17.17;14.88;;;9.00;1.00;;;;;;5062180;28;20210;-75
2021/04/30 03:06:23;;;;;;;17.60;15.80;;;9.00;1.00;;;;;;5085103;28;20216;-75
2021/04/30 03:08:52;;;;;;;15.88;14.52;;;8.90;1.00;;;;;;5074793;28;20319;-75
2021/04/30 03:11:19;;;;;;;17.27;15.55;;;8.90;1.00;;;;;;5048826;28;20225;-75
2021/04/30 03:13:46;;;;;;;14.52;13.18;;;8.90;1.00;;;;;;5070187;28;20221;-75
2021/04/30 03:16:12;;;;;;;17.48;15.77;;;8.90;1.00;;;;;;5073479;28;20276;-76
2021/04/30 03:18:38;;;;;;;16.45;14.85;;;8.90;1.00;;;;;;5070884;28;20225;-76
2021/04/30 03:21:05;;;;;;;15.45;14.07;;;8.90;1.00;;;;;;5064705;28;20237;-76
2021/04/30 03:23:32;;;;;;;15.13;13.63;;;8.90;1.00;;;;;;5055104;28;20225;-76
2021/04/30 03:26:00;;;;;;;14.07;12.80;;;8.90;1.00;;;;;;5052971;28;20231;-75
2021/04/30 03:28:26;;;;;;;17.35;15.52;;;8.90;1.00;;;;;;5051354;28;21047;-76
2021/04/30 03:30:52;;;;;;;14.95;13.55;;;8.80;1.00;;;;;;5055575;28;20303;-76
2021/04/30 03:33:18;;;;;;;17.70;16.02;;;8.80;1.00;;;;;;5055212;28;20260;-75
2021/04/30 03:35:44;;;;;;;15.82;14.32;;;8.80;1.00;;;;;;5052411;28;20584;-75
2021/04/30 03:38:10;;;;;;;17.13;15.52;;;8.80;1.00;;;;;;5056242;28;20761;-76
2021/04/30 03:40:37;;;;;;;18.67;16.10;;;8.70;1.00;;;;;;5056462;28;20221;-76
2021/04/30 03:43:03;;;;;;;18.45;16.70;;;8.60;1.00;;;;;;5056316;28;20698;-76
2021/04/30 03:45:30;;;;;;;17.00;15.27;;;8.50;1.00;;;;;;5055909;28;20235;-76
2021/04/30 03:47:56;;;;;;;17.73;16.00;;;8.50;1.00;;;;;;5066351;28;20233;-75
2021/04/30 03:50:22;;;;;;;17.38;15.68;;;8.40;1.00;;;;;;5059051;28;20224;-74
2021/04/30 03:52:48;;;;;;;16.90;15.40;;;8.30;1.00;;;;;;5078274;28;20214;-76
2021/04/30 03:55:15;;;;;;;17.70;15.90;;;8.20;1.00;;;;;;5074734;27;20241;-76
2021/04/30 03:57:42;;;;;;;19.38;17.33;;;8.20;1.00;;;;;;5057349;28;21332;-76
2021/04/30 04:00:09;;;;;;;17.92;16.25;;;8.20;1.00;;;;;;5055083;28;20226;-76
2021/04/30 04:02:35;;;;;;;19.08;17.25;;;8.20;1.00;;;;;;5057841;28;20227;-76
2021/04/30 04:05:01;;;;;;;19.50;17.50;;;8.20;1.00;;;;;;5053124;28;20226;-76
2021/04/30 04:07:27;;;;;;;18.67;16.85;;;8.20;1.00;;;;;;5061885;28;20321;-76
2021/04/30 04:09:54;;;;;;;18.05;16.25;;;8.30;1.00;;;;;;5055647;28;20615;-76
2021/04/30 04:12:20;;;;;;;19.23;17.42;;;8.30;1.00;;;;;;5056507;28;20305;-75
2021/04/30 04:14:47;;;;;;;23.27;16.40;;;8.30;1.00;;;;;;5055942;28;20220;-75
2021/04/30 04:17:15;;;;;;;18.23;16.42;;;8.40;1.00;;;;;;5057524;28;20237;-75
2021/04/30 04:19:41;;;;;;;18.08;16.17;;;8.40;1.00;;;;;;5056714;28;20217;-76
2021/04/30 04:22:07;;;;;;;18.00;16.20;;;8.50;1.00;;;;;;5063056;28;20221;-76
2021/04/30 04:24:33;;;;;;;17.92;16.13;;;8.50;1.00;;;;;;5058060;28;20260;-75
2021/04/30 04:26:59;;;;;;;16.80;14.98;;;8.50;1.00;;;;;;5058741;28;20224;-76
2021/04/30 04:29:26;;;;;;;22.38;18.98;;;8.60;1.00;;;;;;5056942;28;20228;-76
2021/04/30 04:31:52;;;;;;;18.65;16.85;;;8.60;1.00;;;;;;5063979;28;20670;-75
2021/04/30 04:34:19;;;;;;;17.77;16.08;;;8.60;1.00;;;;;;5067045;28;20222;-75
2021/04/30 04:36:45;;;;;;;18.70;16.70;;;8.60;1.00;;;;;;5062436;28;20232;-75
2021/04/30 04:39:11;;;;;;;17.65;15.75;;;8.60;1.00;;;;;;5056875;28;20221;-75
2021/04/30 04:41:37;;;;;;;17.80;15.90;;;8.70;1.00;;;;;;5057452;28;20445;-75
2021/04/30 04:44:04;;;;;;;18.58;16.77;;;8.70;1.00;;;;;;5054061;28;20225;-75
2021/04/30 04:46:30;;;;;;;19.50;17.60;;;8.80;1.00;;;;;;5054937;28;20217;-75
2021/04/30 04:48:57;;;;;;;16.98;15.23;;;8.70;1.00;;;;;;5043052;28;20396;-77
2021/04/30 04:51:24;;;;;;;17.48;15.77;;;8.70;1.00;;;;;;5057264;28;20360;-77
2021/04/30 04:53:50;;;;;;;17.35;15.57;;;8.60;1.00;;;;;;5054951;28;20810;-76
2021/04/30 04:56:16;;;;;;;18.00;16.20;;;8.70;1.00;;;;;;5056973;28;20224;-77
2021/04/30 04:58:42;;;;;;;18.83;16.83;;;8.70;1.00;;;;;;5053091;28;20260;-76
2021/04/30 05:01:08;;;;;;;19.60;17.35;;;8.70;1.00;;;;;;5056789;28;20225;-76
2021/04/30 05:03:35;;;;;;;17.23;15.63;;;8.70;1.00;;;;;;5036047;28;20260;-75
2021/04/30 05:06:02;;;;;;;19.17;17.27;;;8.80;1.00;;;;;;5056173;28;20274;-76
2021/04/30 05:08:28;;;;;;;19.35;17.30;;;8.80;1.00;;;;;;5045470;28;20243;-75
2021/04/30 05:10:54;;;;;;;19.63;17.63;;;8.80;1.00;;;;;;5069811;28;20769;-75
2021/04/30 05:13:20;;;;;;;18.00;16.23;;;8.80;1.00;;;;;;5053393;28;20221;-75
2021/04/30 05:15:46;;;;;;;19.05;17.15;;;8.80;1.00;;;;;;5056255;28;20988;-75
2021/04/30 05:18:13;;;;;;;18.63;16.63;;;8.80;1.00;;;;;;5052537;28;20238;-76
2021/04/30 05:20:39;;;;;;;17.75;15.95;;;8.80;1.00;;;;;;5057194;28;20275;-76
2021/04/30 05:23:06;;;;;;;18.55;16.25;;;8.80;1.00;;;;;;5058076;28;20235;-75
2021/04/30 05:25:32;;;;;;;18.30;16.50;;;8.80;1.00;;;;;;5059397;28;20315;-75
2021/04/30 05:27:59;;;;;;;19.10;16.98;;;8.80;1.00;;;;;;5055760;28;20330;-76
2021/04/30 05:30:26;;;;;;;17.48;15.82;;;8.80;1.00;;;;;;5055817;28;20298;-76
2021/04/30 05:32:52;;;;;;;20.45;18.45;;;8.80;1.00;;;;;;5051431;28;20291;-75
2021/04/30 05:35:18;;;;;;;19.38;17.38;;;8.70;1.00;;;;;;5059065;28;20229;-76
2021/04/30 05:37:44;;;;;;;22.83;18.50;;;8.70;1.00;;;;;;5035569;28;21063;-76
2021/04/30 05:40:13;;;;;;;20.88;18.65;;;8.70;1.00;;;;;;5063221;28;21114;-75
2021/04/30 05:42:39;;;;;;;18.98;17.17;;;8.70;1.00;;;;;;5058636;28;20248;-75
2021/04/30 05:45:06;;;;;;;18.50;16.60;;;8.60;1.00;;;;;;5042579;28;20302;-76
2021/04/30 05:47:33;;;;;;;18.33;16.48;;;8.70;1.00;;;;;;5052796;28;20230;-76
2021/04/30 05:49:59;;;;;;;17.88;16.17;;;8.70;1.00;;;;;;5053910;28;20229;-78
2021/04/30 05:52:25;;;;;;;17.08;15.40;;;8.70;1.00;;;;;;5053460;28;20221;-76
2021/04/30 05:54:51;;;;;;;17.27;15.50;;;8.70;1.00;;;;;;5034534;28;20311;-76
2021/04/30 05:57:18;;;;;;;17.35;15.60;;;8.80;1.00;;;;;;5053481;28;20350;-76
2021/04/30 05:59:44;;;;;;;23.48;17.52;;;8.80;1.00;;;;;;5051036;28;20218;-76
2021/04/30 06:02:11;;;;;;;18.38;16.48;;;9.00;1.00;;;;;;5055259;28;20214;-74
2021/04/30 06:04:37;;;;;;;18.92;15.60;;;9.10;1.00;;;;;;5059202;28;20435;-76
2021/04/30 06:07:03;;;;;;;24.98;17.20;;;9.20;1.00;;;;;;5065776;28;20278;-76
2021/04/30 06:09:29;;;;;;;15.20;13.68;;;9.30;1.00;;;;;;5067025;28;20284;-75
2021/04/30 06:11:55;;;;;;;15.85;14.15;;;9.30;1.00;;;;;;5071833;28;20778;-77
2021/04/30 06:14:29;;;;;;;15.00;13.35;;;9.20;1.00;;;;;;5062432;28;20221;-76
2021/04/30 06:16:56;;;;;;;13.10;11.88;;;9.30;1.00;;;;;;5051118;28;20258;-76
2021/04/30 06:19:22;;;;;;;13.35;11.95;;;9.40;1.00;;;;;;5055021;28;20315;-76
2021/04/30 06:21:48;;;;;;;12.95;11.65;;;9.40;1.00;;;;;;5055983;28;20229;-78
2021/04/30 06:24:15;;;;;;;13.75;12.38;;;9.40;1.00;;;;;;5068176;28;20298;-78
2021/04/30 06:26:41;;;;;;;15.90;14.25;;;9.40;1.00;;;;;;5067105;28;20221;-78
2021/04/30 06:29:08;;;;;;;12.40;11.20;;;9.40;1.00;;;;;;5056541;28;20238;-77
2021/04/30 06:31:36;;;;;;;13.00;11.68;;;9.30;1.00;;;;;;5055832;28;20233;-77
2021/04/30 06:34:03;;;;;;;13.35;12.07;;;9.30;1.00;;;;;;5061175;28;20265;-81
2021/04/30 06:36:29;;;;;;;15.30;13.60;;;9.30;1.00;;;;;;5057831;28;20237;-80
2021/04/30 06:38:55;;;;;;;15.43;12.15;;;9.30;1.00;;;;;;5061912;28;20235;-78
2021/04/30 06:41:22;;;;;;;12.55;11.45;;;9.30;1.00;;;;;;5065710;28;20292;-81
2021/04/30 06:43:49;;;;;;;12.32;11.23;;;9.40;1.00;;;;;;5064258;28;20276;-80
2021/04/30 06:46:16;;;;;;;12.40;11.10;;;9.40;1.00;;;;;;5060368;28;20236;-81
2021/04/30 06:48:43;;;;;;;9.38;8.48;;;9.50;1.00;;;;;;5046263;28;21205;-78
2021/04/30 06:51:15;;;;;;;11.02;10.13;;;9.60;1.00;;;;;;5059611;28;20276;-79
2021/04/30 06:53:43;;;;;;;9.43;8.48;;;9.60;1.00;;;;;;5081068;27;20232;-79
2021/04/30 06:56:09;;;;;;;6.40;5.80;;;9.70;1.00;;;;;;5064921;28;20276;-80
2021/04/30 06:58:35;;;;;;;8.70;7.30;;;9.70;1.00;;;;;;5063743;28;20424;-74
2021/04/30 07:01:02;;;;;;;7.10;6.50;;;9.70;1.00;;;;;;5060446;28;20226;-73
2021/04/30 07:03:29;;;;;;;7.22;6.63;;;9.80;1.00;;;;;;5061918;28;20233;-74
2021/04/30 07:05:56;;;;;;;6.90;6.30;;;9.80;1.00;;;;;;5061407;28;20330;-75
2021/04/30 07:08:22;;;;;;;8.00;7.10;;;9.60;1.00;;;;;;5083161;28;20267;-75
2021/04/30 07:10:48;;;;;;;8.18;7.40;;;9.60;1.00;;;;;;5080189;28;22990;-75
2021/04/30 07:13:14;;;;;;;7.35;6.65;;;9.50;1.00;;;;;;5062726;28;20230;-74
2021/04/30 07:15:41;;;;;;;6.55;5.85;;;9.50;1.00;;;;;;5044507;28;20233;-75
2021/04/30 07:18:07;;;;;;;7.13;6.45;;;9.40;1.00;;;;;;5057996;28;20232;-74
2021/04/30 07:20:34;;;;;;;7.53;5.65;;;9.40;1.00;;;;;;5059532;28;20225;-73
2021/04/30 07:23:02;;;;;;;6.40;5.80;;;9.30;1.00;;;;;;5061786;28;20251;-73
2021/04/30 07:25:28;;;;;;;6.50;5.90;;;9.30;1.00;;;;;;5059474;28;20221;-79
2021/04/30 07:27:55;;;;;;;5.85;5.30;;;9.30;1.00;;;;;;5071327;28;20630;-81
2021/04/30 07:30:22;;;;;;;6.50;5.85;;;9.30;1.00;;;;;;5084051;28;20246;-78
2021/04/30 07:32:49;;;;;;;6.63;6.10;;;9.40;1.00;;;;;;5061547;28;21164;-79
2021/04/30 07:35:16;;;;;;;7.03;6.32;;;9.40;1.00;;;;;;5079820;28;20225;-78
2021/04/30 07:37:43;;;;;;;12.27;6.28;;;9.40;1.00;;;;;;5076639;28;20229;-77
2021/04/30 07:40:11;;;;;;;7.28;6.55;;;9.40;1.00;;;;;;5079330;28;20224;-78
2021/04/30 07:42:37;;;;;;;6.95;6.18;;;9.50;1.00;;;;;;5074496;28;21387;-79
2021/04/30 07:45:05;;;;;;;6.93;5.47;;;9.50;1.00;;;;;;5074730;28;20259;-76
2021/04/30 07:47:33;;;;;;;8.18;5.90;;;9.60;1.00;;;;;;5086234;28;20277;-78
2021/04/30 07:49:59;;;;;;;5.97;5.38;;;9.60;1.00;;;;;;5076038;28;20251;-76
2021/04/30 07:52:26;;;;;;;8.20;5.88;;;9.70;1.00;;;;;;5086785;28;20240;-77
2021/04/30 07:54:52;;;;;;;6.50;5.72;;;9.80;1.00;;;;;;5083713;28;20218;-76
2021/04/30 07:57:19;;;;;;;6.65;6.05;;;9.80;1.00;;;;;;5092346;27;20241;-76
2021/04/30 07:59:45;;;;;;;6.85;6.13;;;9.80;1.00;;;;;;5087109;27;20611;-76
2021/04/30 08:02:12;;;;;;;9.82;7.18;;;9.80;1.00;;;;;;5084086;27;20216;-80
2021/04/30 08:04:38;;;;;;;10.75;6.43;;;9.80;1.00;;;;;;5085579;28;20250;-75
2021/04/30 08:07:04;;;;;;;10.45;8.35;;;9.70;1.00;;;;;;5087380;27;20321;-75
2021/04/30 08:09:31;;;;;;;8.35;6.22;;;9.70;1.00;;;;;;5068374;28;20314;-76
2021/04/30 08:11:57;;;;;;;11.50;5.93;;;9.60;1.00;;;;;;5090197;28;20291;-75
2021/04/30 08:14:26;;;;;;;6.50;5.82;;;9.70;1.00;;;;;;5085477;28;20202;-77
2021/04/30 08:16:52;;;;;;;7.68;6.97;;;9.80;1.00;;;;;;5096579;28;20201;-77
2021/04/30 08:19:18;;;;;;;6.95;6.30;;;9.80;1.00;;;;;;5093401;28;20220;-75
2021/04/30 08:21:44;;;;;;;20.08;11.93;;;9.90;1.00;;;;;;5077721;28;20231;-76
2021/04/30 08:24:11;;;;;;;9.40;5.95;;;9.90;1.00;;;;;;5096246;27;20228;-78
2021/04/30 08:26:38;;;;;;;8.07;7.28;;;10.00;1.00;;;;;;5075664;28;20231;-77
2021/04/30 08:29:05;;;;;;;11.82;8.80;;;10.10;1.00;;;;;;5091319;28;20214;-78
2021/04/30 08:31:32;;;;;;;14.43;6.80;;;10.20;1.00;;;;;;5091342;27;20338;-73
2021/04/30 08:33:58;;;;;;;8.88;6.45;;;10.30;1.00;;;;;;5078428;28;20222;-74
2021/04/30 08:36:24;;;;;;;6.75;6.10;;;10.30;1.00;;;;;;5072487;28;20321;-75
2021/04/30 08:38:50;;;;;;;10.48;6.68;;;10.10;1.00;;;;;;5078278;28;20229;-74
2021/04/30 08:41:23;;;;;;;8.43;6.32;;;9.90;1.00;;;;;;5076813;27;20235;-74
2021/04/30 08:43:51;;;;;;;6.57;6.00;;;9.80;1.00;;;;;;5082401;28;20227;-75
2021/04/30 08:46:17;;;;;;;8.05;6.50;;;9.70;1.00;;;;;;5076282;28;20221;-76
2021/04/30 08:48:44;;;;;;;7.13;6.47;;;9.60;1.00;;;;;;5049146;28;20258;-74
2021/04/30 08:51:11;;;;;;;5.90;5.30;;;9.50;1.00;;;;;;5070024;28;20283;-74
2021/04/30 08:53:39;;;;;;;6.32;5.68;;;9.50;1.00;;;;;;5075226;28;20234;-73
2021/04/30 08:56:07;;;;;;;6.32;5.75;;;9.60;1.00;;;;;;5074440;28;20217;-73
2021/04/30 08:58:36;;;;;;;6.32;5.57;;;9.70;1.00;;;;;;5080323;28;20230;-76
2021/04/30 09:01:04;;;;;;;5.88;5.38;;;9.70;1.00;;;;;;5081768;28;20241;-73
2021/04/30 09:03:30;;;;;;;10.20;5.78;;;9.80;1.00;;;;;;5077836;28;20213;-74
2021/04/30 09:05:59;;;;;;;14.30;6.80;;;9.90;1.00;;;;;;5078478;28;20294;-73
2021/04/30 09:08:26;;;;;;;5.65;5.10;;;10.10;1.00;;;;;;5062180;28;20227;-74
2021/04/30 09:10:56;;;;;;;7.43;6.40;;;10.40;1.00;;;;;;5059280;28;20285;-74
2021/04/30 09:13:23;;;;;;;5.15;4.38;;;10.50;1.00;;;;;;5057305;28;20256;-74
2021/04/30 09:16:02;;;;;;;7.40;5.60;;;10.70;1.00;;;;;;5057041;28;20254;-74
2021/04/30 09:18:32;;;;;;;9.25;5.85;;;10.90;1.00;;;;;;5056645;28;20217;-74
2021/04/30 09:21:09;;;;;;;5.67;4.33;;;11.00;1.00;;;;;;5062908;28;20235;-74
2021/04/30 09:23:37;;;;;;;7.68;6.07;;;11.10;1.00;;;;;;5069595;28;20450;-75
2021/04/30 09:26:20;;;;;;;5.43;4.93;;;11.30;1.00;;;;;;5066139;28;20236;-73
2021/04/30 09:29:03;;;;;;;10.73;5.78;;;11.40;1.00;;;;;;5061082;28;20525;-76
2021/04/30 09:31:45;;;;;;;8.60;5.60;;;11.50;1.00;;;;;;5074061;28;20230;-75
2021/04/30 09:34:16;;;;;;;10.73;5.97;;;11.50;1.00;;;;;;5053548;28;20342;-74
2021/04/30 09:36:59;;;;;;;6.90;5.53;;;11.60;1.00;;;;;;5060360;28;20447;-74
2021/04/30 09:39:27;;;;;;;6.93;6.30;;;11.60;1.00;;;;;;5054723;28;20483;-74
2021/04/30 09:42:08;;;;;;;6.93;5.60;;;11.80;1.00;;;;;;5056124;28;20451;-74
2021/04/30 09:44:35;;;;;;;5.87;5.23;;;11.90;1.00;;;;;;5054728;28;21147;-73
2021/04/30 09:47:16;;;;;;;7.20;4.60;;;12.10;1.00;;;;;;5039562;28;20598;-75
2021/04/30 09:49:43;;;;;;;6.37;5.07;;;12.50;1.00;;;;;;5056525;28;20404;-75
2021/04/30 09:52:12;;;;;;;4.90;4.40;;;12.90;1.00;;;;;;5063765;28;20494;-75
2021/04/30 09:54:38;;;;;;;5.50;5.00;;;13.20;1.00;;;;;;5058640;28;20416;-75
2021/04/30 09:57:07;;;;;;;5.23;4.73;;;13.30;1.00;;;;;;5042474;28;20424;-76
2021/04/30 09:59:34;;;;;;;7.33;5.10;;;13.10;1.00;;;;;;5055842;28;20543;-72
2021/04/30 10:02:09;;;;;;;4.50;4.20;;;12.80;1.00;;;;;;5055527;28;20457;-74
2021/04/30 10:04:37;;;;;;;5.10;4.70;;;12.60;1.00;;;;;;5062564;28;20427;-74
2021/04/30 10:07:04;;;;;;;5.97;4.83;;;12.50;1.00;;;;;;5062516;28;21543;-73
2021/04/30 10:09:33;;;;;;;7.17;4.60;;;12.50;1.00;;;;;;5057063;28;20464;-73
2021/04/30 10:12:16;;;;;;;4.73;4.27;;;12.50;1.00;;;;;;5056989;28;20993;-74
2021/04/30 10:14:43;;;;;;;8.10;6.70;;;12.50;1.00;;;;;;5055035;28;20441;-74
2021/04/30 10:17:11;;;;;;;5.40;4.90;;;12.60;1.00;;;;;;5038120;28;20498;-75
2021/04/30 10:19:37;;;;;;;6.90;5.60;;;12.60;1.00;;;;;;5056848;28;20486;-75
2021/04/30 10:22:04;;;;;;;5.20;4.77;;;12.60;1.00;;;;;;5053810;28;20471;-75
2021/04/30 10:24:32;;;;;;;5.00;4.60;;;12.70;1.00;;;;;;5055455;28;20510;-75
2021/04/30 10:26:59;;;;;;;4.90;4.40;;;12.80;1.00;;;;;;5055891;28;20220;-75
2021/04/30 10:29:28;;;;;;;5.77;5.10;;;12.90;1.00;;;;;;5057633;28;20975;-77
2021/04/30 10:31:59;;;;;;;6.17;5.57;;;13.10;1.00;;;;;;5073978;28;20483;-74
2021/04/30 10:34:27;;;;;;;4.73;4.23;;;13.50;1.00;;;;;;5066382;28;20737;-74
2021/04/30 10:36:56;;;;;;;7.20;6.00;;;14.00;1.00;;;;;;5054388;28;21022;-73
2021/04/30 10:39:26;;;;;;;5.60;5.10;;;14.30;1.00;;;;;;5062525;28;20483;-74
2021/04/30 10:41:53;;;;;;;6.37;5.47;;;14.50;1.00;;;;;;5058758;28;21805;-74
2021/04/30 10:44:22;;;;;;;4.97;4.53;;;14.60;1.00;;;;;;5055134;28;21236;-75
2021/04/30 10:46:51;;;;;;;7.37;5.33;;;14.70;1.00;;;;;;5060926;28;20491;-74
2021/04/30 10:49:20;;;;;;;6.10;5.50;;;14.60;1.00;;;;;;5064861;28;20455;-76
2021/04/30 10:52:19;;;;;;;5.73;5.20;;;14.30;1.00;;;;;;5068521;28;20453;-76
2021/04/30 10:54:48;;;;;;;4.20;3.90;;;14.10;1.00;;;;;;5068364;28;20428;-75
2021/04/30 10:57:16;;;;;;;4.50;4.10;;;13.70;1.00;;;;;;5060035;28;21527;-77
2021/04/30 10:59:44;;;;;;;6.80;6.20;;;13.60;1.00;;;;;;5070294;28;20418;-76
2021/04/30 11:02:12;;;;;;;5.57;5.00;;;13.60;1.00;;;;;;5067242;28;20451;-75
2021/04/30 11:04:39;;;;;;;6.07;5.00;;;13.60;1.00;;;;;;5075790;28;20443;-77
2021/04/30 11:07:08;;;;;;;4.90;4.40;;;13.70;1.00;;;;;;5066660;28;20449;-76
2021/04/30 11:09:37;;;;;;;8.43;6.70;;;13.70;1.00;;;;;;5070479;28;20551;-75
2021/04/30 11:12:24;;;;;;;6.27;4.70;;;13.90;1.00;;;;;;5063497;28;20518;-75
2021/04/30 11:15:02;;;;;;;6.37;5.87;;;13.80;1.00;;;;;;5050258;28;20442;-74
2021/04/30 11:17:48;;;;;;;5.50;4.57;;;13.90;1.00;;;;;;5069099;28;20428;-74
2021/04/30 11:20:17;;;;;;;5.07;4.57;;;14.10;1.00;;;;;;5062078;28;20459;-75
2021/04/30 11:23:13;;;;;;;7.50;5.07;;;14.30;1.00;;;;;;5061399;28;20467;-73
2021/04/30 11:26:04;;;;;;;7.50;5.27;;;14.60;1.00;;;;;;5062562;28;20500;-77
2021/04/30 11:29:03;;;;;;;5.63;5.13;;;14.90;1.00;;;;;;5069747;28;20420;-77
2021/04/30 11:31:32;;;;;;;9.93;5.80;;;15.10;1.00;;;;;;5076428;28;20436;-75
2021/04/30 11:34:26;;;;;;;6.13;5.60;;;15.20;1.00;;;;;;5066092;28;20487;-76
2021/04/30 11:36:59;;;;;;;5.90;5.20;;;14.80;1.00;;;;;;5064442;28;20462;-76
2021/04/30 11:39:32;;;;;;;7.57;6.00;;;14.40;1.00;;;;;;5071542;28;20990;-76
2021/04/30 11:42:01;;;;;;;8.03;6.67;;;14.10;1.00;;;;;;5065132;28;20888;-75
2021/04/30 11:44:27;;;;;;;8.97;6.50;;;13.80;1.00;;;;;;5061089;28;20524;-76
2021/04/30 11:47:02;;;;;;;6.73;6.10;;;13.70;1.00;;;;;;5066820;28;21251;-77
2021/04/30 11:49:29;;;;;;;6.60;6.10;;;13.60;1.00;;;;;;5066209;28;20561;-75
2021/04/30 11:51:56;;;;;;;6.43;5.87;;;13.10;1.00;;;;;;5059207;28;21096;-76
2021/04/30 11:54:28;;;;;;;7.00;6.23;;;12.80;1.00;;;;;;5064754;28;20566;-76
2021/04/30 11:57:00;;;;;;;6.53;5.93;;;12.60;1.00;;;;;;5060831;28;20435;-76
2021/04/30 11:59:26;;;;;;;7.00;6.30;;;12.40;1.00;;;;;;5062318;28;20467;-76
2021/04/30 12:01:59;;;;;;;7.50;6.73;;;12.30;1.00;;;;;;5070491;28;20469;-77
2021/04/30 12:04:51;;;;;;;7.53;6.73;;;12.20;1.00;;;;;;5066956;28;20579;-76
2021/04/30 12:07:19;;;;;;;7.40;6.60;;;12.20;1.00;;;;;;5050371;28;20436;-76
2021/04/30 12:09:46;;;;;;;11.47;7.67;;;12.20;1.00;;;;;;5060821;28;21160;-76
2021/04/30 12:12:17;;;;;;;7.30;6.13;;;12.20;1.00;;;;;;5065935;28;20463;-77
2021/04/30 12:14:45;;;;;;;8.40;7.60;;;12.30;1.00;;;;;;5067173;28;20436;-77
2021/04/30 12:17:24;;;;;;;11.10;8.70;;;12.30;1.00;;;;;;5067759;28;20928;-76
2021/04/30 12:19:59;;;;;;;6.60;6.00;;;12.40;1.00;;;;;;5066979;28;20426;-76
2021/04/30 12:22:26;;;;;;;8.30;7.60;;;12.40;1.00;;;;;;5064982;28;20479;-77
2021/04/30 12:24:53;;;;;;;7.80;7.10;;;12.40;1.00;;;;;;5065807;28;20466;-75
2021/04/30 12:27:28;;;;;;;7.20;6.60;;;12.30;1.00;;;;;;5065292;28;20479;-75
2021/04/30 12:29:54;;;;;;;8.33;7.53;;;12.20;1.00;;;;;;5079572;28;20231;-76
2021/04/30 12:32:27;;;;;;;12.17;9.43;;;12.10;1.00;;;;;;5068760;28;20506;-76
2021/04/30 12:34:53;;;;;;;8.93;6.70;;;12.00;1.00;;;;;;5041699;28;20449;-76
2021/04/30 12:37:20;;;;;;;8.03;7.23;;;12.00;1.00;;;;;;5067567;28;20457;-77
2021/04/30 12:39:47;;;;;;;11.77;9.57;;;12.00;1.00;;;;;;5068333;28;20451;-77
2021/04/30 12:42:13;;;;;;;9.83;9.00;;;12.00;1.00;;;;;;5071901;28;21285;-75
2021/04/30 12:44:50;;;;;;;8.97;8.13;;;12.00;1.00;;;;;;5066791;28;20448;-76
2021/04/30 12:47:16;;;;;;;12.80;8.37;;;12.10;1.00;;;;;;5073145;28;20454;-76
2021/04/30 12:49:43;;;;;;;9.50;8.53;;;12.10;1.00;;;;;;5070907;28;20457;-76
2021/04/30 12:52:10;;;;;;;9.27;8.37;;;12.10;1.00;;;;;;5043663;28;20982;-77
2021/04/30 12:54:36;;;;;;;10.15;8.52;;;12.00;1.00;;;;;;5075912;28;20424;-75
2021/04/30 12:57:08;;;;;;;9.70;8.70;;;12.10;1.00;;;;;;5087516;28;20224;-77